General Aviation Weather

Text Reports

Enter one or more of the following location identifiers separated by a space:

Zip Code, Four-Character ICAO or Three-Character IATA airport codes.

METAR - Aviation Routine Weather Report
KIML - Imperial, Nebraska
Updated at 4:53 PM GMT on July 29, 2014 (10:53 AM MDT):
METAR KIML 291653Z AUTO 13010KT 10SM OVC039 23/14 A3023 RMK AO2 SLP211 T02280144
TAF - Terminal Area Forecast
KIML - Imperial, Nebraska
Updated at 4:53 PM GMT on July 29, 2014 (10:53 AM MDT):
No TAF is currently available for this location.
Decoded:
No decoded TAF is available.
PIREP - Pilot Weather Report
KIML - Imperial, Nebraska
Updated at 4:53 PM GMT on July 29, 2014 (10:53 AM MDT):
No PIREP is currently available for this location.
AIRMET - Airmens Meteorological Information
KIML - Imperial, Nebraska
Updated at 4:53 PM GMT on July 29, 2014 (10:53 AM MDT):
No AIRMET is currently available for this location.
SIGMET - Significant Meteorological Information
KIML - Imperial, Nebraska
Updated at 4:53 PM GMT on July 29, 2014 (10:53 AM MDT):
No SIGMET is currently available for this location.
NOTAM - Notice to Airmen
KIML - Imperial, Nebraska
Updated at 4:53 PM GMT on July 29, 2014 (10:53 AM MDT):
No NOTAM is currently available for this location.
Forecast Area
KIML - Imperial, Nebraska
Updated at 4:53 PM GMT on July 29, 2014 (10:53 AM MDT):
No NOTAM is currently available for this location.
Aviation Weather Maps